Time;durP1;ratioP1;P1;durP2;ratioP2;P2;SDS_P1;SDS_P2;PMS_P1;PMS_P2;Temp;Humidity;BMP_temperature;BMP_pressure;BME280_temperature;BME280_humidity;BME280_pressure;Samples;Min_cycle;Max_cycle;Signal;HPM_P1;HPM_P2
2022/07/09 00:01:43;;;;;;;1.50;0.90;;;18.80;97.10;;;;;;6077438;23;20857;-77
2022/07/09 00:04:10;;;;;;;1.50;0.90;;;18.80;97.70;;;;;;6091743;23;20462;-77
2022/07/09 00:06:37;;;;;;;1.50;0.90;;;18.70;97.30;;;;;;6092313;23;20426;-77
2022/07/09 00:09:04;;;;;;;1.50;0.90;;;18.70;97.90;;;;;;6092043;23;20423;-76
2022/07/09 00:11:33;;;;;;;1.47;0.90;;;18.70;98.20;;;;;;6077764;23;20970;-77
2022/07/09 00:14:00;;;;;;;1.50;1.00;;;18.70;98.20;;;;;;6091843;23;20443;-76
2022/07/09 00:16:27;;;;;;;1.47;1.00;;;18.60;98.20;;;;;;6093541;23;20735;-76
2022/07/09 00:18:54;;;;;;;1.50;0.90;;;18.60;98.10;;;;;;6092555;23;20426;-77
2022/07/09 00:21:20;;;;;;;1.40;1.00;;;18.60;98.20;;;;;;6092650;23;20924;-77
2022/07/09 00:23:51;;;;;;;1.50;0.90;;;18.60;98.20;;;;;;6093605;23;20474;-77
2022/07/09 00:26:18;;;;;;;1.50;0.90;;;18.50;98.20;;;;;;6079654;23;20446;-77
2022/07/09 00:28:46;;;;;;;1.50;0.90;;;18.50;98.20;;;;;;6092231;23;20422;-76
2022/07/09 00:31:13;;;;;;;1.43;0.90;;;18.50;98.20;;;;;;6077855;23;20470;-76
2022/07/09 00:33:40;;;;;;;1.50;0.93;;;18.40;98.20;;;;;;6092039;23;20509;-75
2022/07/09 00:36:08;;;;;;;1.50;0.90;;;18.40;98.20;;;;;;6078138;23;20438;-76
2022/07/09 00:38:35;;;;;;;1.50;0.90;;;18.40;98.20;;;;;;6093250;23;20486;-76
2022/07/09 00:41:02;;;;;;;1.47;0.93;;;18.40;98.20;;;;;;6077048;23;20482;-76
2022/07/09 00:43:30;;;;;;;1.43;0.90;;;18.30;98.20;;;;;;6090852;23;20426;-77
2022/07/09 00:45:59;;;;;;;1.47;0.90;;;18.30;98.20;;;;;;6077608;23;20428;-77
2022/07/09 00:48:26;;;;;;;1.50;0.90;;;18.30;98.20;;;;;;6091036;23;20459;-76
2022/07/09 00:50:54;;;;;;;1.43;1.00;;;18.30;98.20;;;;;;6077960;23;20442;-78
2022/07/09 00:53:25;;;;;;;1.50;0.90;;;18.30;98.20;;;;;;6099992;23;20428;-76
2022/07/09 00:55:53;;;;;;;1.50;0.90;;;18.20;98.20;;;;;;6078898;23;20414;-77
2022/07/09 00:58:21;;;;;;;1.50;1.00;;;18.20;98.20;;;;;;6091177;23;20427;-76
2022/07/09 01:00:48;;;;;;;1.47;0.90;;;18.20;98.20;;;;;;6078191;23;20453;-76
2022/07/09 01:03:17;;;;;;;1.50;0.90;;;18.20;98.20;;;;;;6100270;23;20436;-76
2022/07/09 01:05:44;;;;;;;1.50;0.90;;;18.20;98.20;;;;;;6092050;23;20455;-76
2022/07/09 01:08:11;;;;;;;1.47;1.00;;;18.20;98.20;;;;;;6091331;23;20878;-76
2022/07/09 01:10:38;;;;;;;1.50;0.90;;;18.10;98.20;;;;;;6092389;23;20450;-77
2022/07/09 01:13:06;;;;;;;1.50;0.90;;;18.10;98.20;;;;;;6075929;23;20482;-76
2022/07/09 01:15:33;;;;;;;1.50;0.90;;;18.10;98.20;;;;;;6092708;23;20506;-76
2022/07/09 01:18:01;;;;;;;1.47;0.90;;;18.10;98.20;;;;;;6076784;23;20588;-76
2022/07/09 01:20:30;;;;;;;1.47;0.90;;;18.00;98.20;;;;;;6092404;23;20423;-76
2022/07/09 01:22:58;;;;;;;1.47;0.90;;;18.00;98.20;;;;;;6100760;23;20747;-76
2022/07/09 01:25:33;;;;;;;1.47;1.00;;;18.00;98.20;;;;;;6092770;23;20446;-76
2022/07/09 01:28:00;;;;;;;1.40;0.90;;;18.00;98.20;;;;;;6075993;23;20581;-76
2022/07/09 01:30:28;;;;;;;1.47;0.90;;;18.00;98.20;;;;;;6092541;23;20422;-76
2022/07/09 01:32:56;;;;;;;1.50;0.90;;;18.00;98.20;;;;;;6075502;23;20450;-76
2022/07/09 01:35:23;;;;;;;1.50;0.90;;;17.90;98.20;;;;;;6097027;23;20512;-75
2022/07/09 01:37:52;;;;;;;1.50;0.97;;;17.90;98.20;;;;;;6076891;23;20478;-76
2022/07/09 01:40:19;;;;;;;1.47;0.90;;;17.90;98.20;;;;;;6091511;23;20422;-76
2022/07/09 01:42:46;;;;;;;1.50;0.90;;;17.80;98.20;;;;;;6076057;23;20561;-76
2022/07/09 01:45:14;;;;;;;1.43;0.90;;;17.80;98.20;;;;;;6101773;23;20439;-76
2022/07/09 01:47:41;;;;;;;1.50;1.00;;;17.80;98.20;;;;;;6093269;23;20990;-76
2022/07/09 01:50:09;;;;;;;1.50;0.90;;;17.80;98.20;;;;;;6103004;23;20415;-76
2022/07/09 01:52:36;;;;;;;1.50;0.90;;;17.80;98.20;;;;;;6092783;23;20540;-75
2022/07/09 01:55:06;;;;;;;1.50;1.00;;;17.80;98.20;;;;;;6095590;23;20832;-76
2022/07/09 01:57:32;;;;;;;1.50;1.00;;;17.80;98.20;;;;;;6080442;23;20795;-76
2022/07/09 02:00:00;;;;;;;1.50;1.00;;;17.80;98.20;;;;;;6102628;23;20434;-76
2022/07/09 02:02:26;;;;;;;1.43;0.90;;;17.80;98.20;;;;;;6091926;23;20433;-77
2022/07/09 02:04:54;;;;;;;1.40;1.00;;;17.80;98.20;;;;;;6094132;23;20454;-76
2022/07/09 02:07:21;;;;;;;1.47;1.00;;;17.80;98.20;;;;;;6078284;23;20515;-76
2022/07/09 02:09:49;;;;;;;1.50;0.90;;;17.80;98.20;;;;;;6092184;23;20423;-76
2022/07/09 02:12:18;;;;;;;1.50;0.90;;;17.80;98.20;;;;;;6077460;23;20470;-77
2022/07/09 02:14:45;;;;;;;1.47;1.00;;;17.80;98.20;;;;;;6093226;23;20856;-76
2022/07/09 02:17:12;;;;;;;1.40;0.97;;;17.80;98.20;;;;;;6093470;23;20486;-76
2022/07/09 02:19:39;;;;;;;1.50;1.00;;;17.80;98.20;;;;;;6093360;23;20438;-76
2022/07/09 02:22:07;;;;;;;1.40;0.90;;;17.90;98.20;;;;;;6102413;23;20963;-76
2022/07/09 02:24:33;;;;;;;1.40;0.90;;;17.90;98.20;;;;;;6092684;23;20960;-76
2022/07/09 02:27:01;;;;;;;1.47;1.00;;;17.90;98.20;;;;;;6093231;23;20426;-76
2022/07/09 02:29:29;;;;;;;1.43;1.00;;;18.00;98.20;;;;;;6103420;23;20430;-77
2022/07/09 02:31:57;;;;;;;1.50;0.90;;;18.00;98.20;;;;;;6077596;23;20454;-76
2022/07/09 02:34:24;;;;;;;1.50;1.00;;;18.00;98.20;;;;;;6092774;23;20449;-76
2022/07/09 02:36:51;;;;;;;1.50;0.90;;;18.00;98.20;;;;;;6077118;23;20454;-76
2022/07/09 02:39:18;;;;;;;1.50;1.00;;;18.10;98.20;;;;;;6094233;23;20963;-76
2022/07/09 02:41:45;;;;;;;1.50;1.00;;;18.10;98.20;;;;;;6077435;23;20450;-76
2022/07/09 02:44:12;;;;;;;1.47;0.90;;;18.10;98.20;;;;;;6093346;23;20443;-76
2022/07/09 02:46:40;;;;;;;1.50;0.90;;;18.10;98.20;;;;;;6078489;23;20450;-76
2022/07/09 02:49:07;;;;;;;1.50;0.90;;;18.10;98.20;;;;;;6092710;23;20498;-77
2022/07/09 02:51:34;;;;;;;1.50;0.90;;;18.10;98.20;;;;;;6077466;23;20517;-77
2022/07/09 02:54:01;;;;;;;1.40;0.90;;;18.10;98.20;;;;;;6092920;23;20447;-76
2022/07/09 02:56:28;;;;;;;1.47;0.90;;;18.10;98.20;;;;;;6079251;23;20485;-76
2022/07/09 02:58:55;;;;;;;1.47;0.90;;;18.10;98.20;;;;;;6093428;23;20465;-76
2022/07/09 03:01:22;;;;;;;1.50;0.90;;;18.10;98.20;;;;;;6078871;23;20534;-77
2022/07/09 03:03:52;;;;;;;1.50;0.90;;;18.10;98.20;;;;;;6092123;23;20803;-75
2022/07/09 03:06:19;;;;;;;1.50;0.93;;;18.00;98.20;;;;;;6079678;23;20517;-77
2022/07/09 03:08:46;;;;;;;1.50;1.00;;;18.00;98.20;;;;;;6091769;23;20426;-76
2022/07/09 03:11:13;;;;;;;1.43;0.90;;;18.00;98.20;;;;;;6078236;23;21104;-76
2022/07/09 03:13:41;;;;;;;1.50;1.00;;;17.90;98.20;;;;;;6093401;23;20433;-77
2022/07/09 03:16:08;;;;;;;1.40;0.90;;;17.90;98.20;;;;;;6094644;23;20968;-77
2022/07/09 03:18:37;;;;;;;1.50;0.90;;;17.80;98.20;;;;;;6094955;23;20426;-78
2022/07/09 03:21:08;;;;;;;1.40;0.90;;;17.80;98.20;;;;;;6109452;23;20490;-77
2022/07/09 03:23:35;;;;;;;1.50;0.90;;;17.80;98.20;;;;;;6107125;23;20426;-78
2022/07/09 03:26:04;;;;;;;1.47;0.90;;;17.70;98.20;;;;;;6105035;23;20425;-77
2022/07/09 03:28:32;;;;;;;1.47;1.00;;;17.70;98.20;;;;;;6105801;23;20434;-78
2022/07/09 03:30:59;;;;;;;1.47;0.93;;;17.70;98.20;;;;;;6079632;23;20509;-76
2022/07/09 03:33:27;;;;;;;1.47;0.90;;;17.70;98.20;;;;;;6093494;23;20423;-77
2022/07/09 03:35:55;;;;;;;1.43;0.90;;;17.60;98.20;;;;;;6098247;23;20422;-75
2022/07/09 03:38:25;;;;;;;1.47;0.90;;;17.60;98.20;;;;;;6101527;23;20415;-76
2022/07/09 03:40:52;;;;;;;1.40;0.90;;;17.60;98.20;;;;;;6094605;23;20498;-78
2022/07/09 03:43:20;;;;;;;1.47;0.90;;;17.60;98.20;;;;;;6093944;23;20419;-76
2022/07/09 03:45:47;;;;;;;1.40;0.90;;;17.50;98.20;;;;;;6078842;23;20498;-75
2022/07/09 03:48:15;;;;;;;1.50;0.90;;;17.50;98.20;;;;;;6102423;23;20419;-75
2022/07/09 03:50:42;;;;;;;1.47;0.90;;;17.50;98.20;;;;;;6094524;23;20422;-76
2022/07/09 03:53:09;;;;;;;1.50;0.90;;;17.50;98.20;;;;;;6077890;23;20964;-75
2022/07/09 03:55:38;;;;;;;1.50;1.10;;;17.50;98.20;;;;;;6093581;23;20447;-75
2022/07/09 03:58:05;;;;;;;1.43;0.90;;;17.50;98.20;;;;;;6078874;23;20454;-76
2022/07/09 04:00:33;;;;;;;1.47;0.90;;;17.40;98.20;;;;;;6104745;23;20422;-76
2022/07/09 04:03:00;;;;;;;1.47;0.90;;;17.40;98.20;;;;;;6093283;23;20419;-76
2022/07/09 04:05:27;;;;;;;1.50;1.00;;;17.40;98.20;;;;;;6093526;23;20457;-75
2022/07/09 04:07:54;;;;;;;1.43;0.90;;;17.40;98.20;;;;;;6076747;23;20525;-76
2022/07/09 04:10:22;;;;;;;1.47;1.00;;;17.40;98.20;;;;;;6093607;23;20464;-76
2022/07/09 04:12:51;;;;;;;1.50;1.00;;;17.40;98.20;;;;;;6077494;23;20451;-76
2022/07/09 04:15:18;;;;;;;1.40;0.90;;;17.40;98.20;;;;;;6095697;23;20450;-77
2022/07/09 04:17:45;;;;;;;1.50;1.00;;;17.40;98.20;;;;;;6081931;23;20991;-78
2022/07/09 04:20:13;;;;;;;1.47;0.90;;;17.40;98.20;;;;;;6100474;23;20426;-78
2022/07/09 04:22:40;;;;;;;1.50;0.90;;;17.40;98.20;;;;;;6086318;23;20446;-77
2022/07/09 04:25:09;;;;;;;1.50;0.93;;;17.40;98.20;;;;;;6111266;23;20446;-77
2022/07/09 04:27:38;;;;;;;1.40;0.90;;;17.40;98.20;;;;;;6084935;23;20874;-77
2022/07/09 04:30:10;;;;;;;1.43;0.90;;;17.50;98.20;;;;;;6101874;23;20422;-78
2022/07/09 04:32:37;;;;;;;1.50;0.90;;;17.50;98.20;;;;;;6086921;23;21032;-74
2022/07/09 04:35:05;;;;;;;1.50;0.97;;;17.50;98.20;;;;;;6100604;23;20446;-76
2022/07/09 04:37:33;;;;;;;1.50;0.90;;;17.50;98.20;;;;;;6101354;23;20913;-77
2022/07/09 04:40:00;;;;;;;1.47;0.90;;;17.50;98.20;;;;;;6110454;23;20979;-78
2022/07/09 04:42:28;;;;;;;1.47;0.93;;;17.50;98.20;;;;;;6087540;23;20529;-77
2022/07/09 04:44:57;;;;;;;1.47;1.00;;;17.60;98.20;;;;;;6110988;23;20518;-77
2022/07/09 04:47:26;;;;;;;1.40;0.90;;;17.60;98.20;;;;;;6088700;23;20453;-78
2022/07/09 04:49:53;;;;;;;1.47;0.90;;;17.70;98.20;;;;;;6100808;23;20506;-77
2022/07/09 04:52:26;;;;;;;1.43;0.90;;;17.70;98.20;;;;;;6089401;23;20451;-77
2022/07/09 04:54:54;;;;;;;1.47;0.93;;;17.80;98.20;;;;;;6101218;23;20443;-77
2022/07/09 04:57:22;;;;;;;1.47;0.90;;;17.80;98.20;;;;;;6101593;23;20422;-75
2022/07/09 04:59:49;;;;;;;1.47;1.00;;;18.00;98.20;;;;;;6101094;23;20419;-77
2022/07/09 05:02:17;;;;;;;1.43;0.90;;;18.20;98.20;;;;;;6110830;23;20415;-77
2022/07/09 05:04:45;;;;;;;1.50;1.00;;;18.50;98.20;;;;;;6101677;23;20447;-76
2022/07/09 05:07:13;;;;;;;1.50;0.90;;;18.70;98.20;;;;;;6090409;23;20450;-77
2022/07/09 05:09:40;;;;;;;1.47;0.90;;;18.80;98.20;;;;;;6101224;23;20430;-75
2022/07/09 05:12:10;;;;;;;1.50;1.00;;;19.00;98.20;;;;;;6099948;23;20447;-77
2022/07/09 05:14:38;;;;;;;1.50;1.03;;;19.20;98.20;;;;;;6101500;23;20446;-76
2022/07/09 05:17:06;;;;;;;1.50;0.93;;;19.40;98.20;;;;;;6090230;23;20462;-76
2022/07/09 05:19:34;;;;;;;1.50;1.00;;;19.50;98.20;;;;;;6109615;23;20422;-76
2022/07/09 05:22:04;;;;;;;1.43;0.90;;;19.60;98.20;;;;;;6091935;23;20477;-77
2022/07/09 05:24:31;;;;;;;1.47;0.90;;;19.60;98.20;;;;;;6103044;23;20905;-76
2022/07/09 05:26:59;;;;;;;1.47;0.90;;;19.60;98.20;;;;;;6092279;23;20529;-75
2022/07/09 05:29:27;;;;;;;1.47;1.00;;;19.60;98.20;;;;;;6112248;23;20518;-77
2022/07/09 05:31:54;;;;;;;1.50;0.90;;;19.60;98.20;;;;;;6086511;23;20443;-77
2022/07/09 05:34:22;;;;;;;1.50;0.90;;;19.60;98.20;;;;;;6112747;23;20458;-77
2022/07/09 05:36:51;;;;;;;1.47;0.90;;;19.60;98.20;;;;;;6115764;23;20430;-76
2022/07/09 05:39:20;;;;;;;1.40;0.90;;;19.60;98.20;;;;;;6104457;23;20485;-76
2022/07/09 05:41:48;;;;;;;1.47;0.90;;;19.80;98.20;;;;;;6092414;23;20450;-76
2022/07/09 05:44:16;;;;;;;1.50;0.90;;;20.00;98.20;;;;;;6101816;23;20442;-76
2022/07/09 05:46:44;;;;;;;1.57;1.10;;;20.20;98.20;;;;;;6087044;23;20505;-75
2022/07/09 05:49:11;;;;;;;1.50;0.90;;;20.40;98.20;;;;;;6111734;23;20431;-76
2022/07/09 05:51:42;;;;;;;1.50;0.90;;;20.60;98.20;;;;;;6112184;23;20824;-76
2022/07/09 05:54:09;;;;;;;1.50;0.90;;;20.90;98.20;;;;;;6113004;23;20449;-76
2022/07/09 05:56:38;;;;;;;1.50;0.90;;;21.00;97.90;;;;;;6102184;23;20463;-76
2022/07/09 05:59:06;;;;;;;1.50;0.90;;;21.30;97.10;;;;;;6103780;23;20431;-76
2022/07/09 06:01:38;;;;;;;1.50;0.90;;;21.30;96.60;;;;;;6087738;23;20454;-77
2022/07/09 06:04:07;;;;;;;1.50;0.90;;;21.40;97.30;;;;;;6111805;23;20477;-78
2022/07/09 06:06:34;;;;;;;1.50;0.90;;;21.60;96.40;;;;;;6093385;23;20525;-78
2022/07/09 06:09:02;;;;;;;1.50;0.90;;;21.90;95.20;;;;;;6102300;23;20454;-78
2022/07/09 06:11:30;;;;;;;1.47;0.90;;;22.10;94.90;;;;;;6094376;23;20446;-77
2022/07/09 06:13:59;;;;;;;1.50;0.90;;;22.40;94.50;;;;;;6101737;23;20458;-75
2022/07/09 06:16:33;;;;;;;1.50;0.90;;;22.50;94.00;;;;;;6095578;23;20608;-77
2022/07/09 06:19:02;;;;;;;1.50;0.90;;;22.70;94.30;;;;;;6103824;23;20517;-77
2022/07/09 06:21:35;;;;;;;1.50;0.90;;;22.90;93.20;;;;;;6114975;23;20709;-76
2022/07/09 06:24:17;;;;;;;1.50;0.90;;;23.20;92.40;;;;;;6107256;23;20461;-78
2022/07/09 06:26:46;;;;;;;1.50;0.90;;;23.50;91.90;;;;;;6093547;23;20591;-77
2022/07/09 06:29:15;;;;;;;1.50;0.90;;;23.60;91.40;;;;;;6112134;23;20456;-77
2022/07/09 06:31:43;;;;;;;1.47;0.90;;;23.90;90.80;;;;;;6093313;23;20953;-78
2022/07/09 06:34:11;;;;;;;1.50;0.90;;;24.00;90.40;;;;;;6111618;23;20450;-76
2022/07/09 06:36:39;;;;;;;1.50;1.00;;;24.10;90.20;;;;;;6096928;23;20479;-77
2022/07/09 06:41:51;;;;;;;1.70;1.30;;;24.50;88.90;;;;;;6092500;23;20825;-77
2022/07/09 06:44:20;;;;;;;1.50;0.90;;;24.80;87.50;;;;;;6106170;23;20443;-76
2022/07/09 06:46:51;;;;;;;1.50;0.90;;;24.80;87.00;;;;;;6099010;23;20501;-78
2022/07/09 06:49:22;;;;;;;1.47;0.90;;;24.90;87.20;;;;;;6103754;23;20795;-77
2022/07/09 06:51:50;;;;;;;1.50;0.83;;;25.10;86.20;;;;;;6110100;23;20948;-75
2022/07/09 06:54:21;;;;;;;1.47;0.80;;;25.30;85.00;;;;;;6108189;23;20461;-77
2022/07/09 06:56:48;;;;;;;1.50;0.83;;;25.60;84.10;;;;;;6092171;23;20808;-77
2022/07/09 06:59:18;;;;;;;1.47;0.80;;;25.70;83.70;;;;;;6096775;23;20427;-76
2022/07/09 07:01:47;;;;;;;1.43;0.90;;;25.80;82.30;;;;;;6088375;23;20450;-76
2022/07/09 07:04:14;;;;;;;1.50;0.87;;;25.50;81.80;;;;;;6106225;23;20450;-76
2022/07/09 07:06:42;;;;;;;1.47;0.80;;;25.30;82.20;;;;;;6091039;23;20454;-76
2022/07/09 07:09:10;;;;;;;1.50;1.10;;;25.30;82.30;;;;;;6096400;23;20813;-77
2022/07/09 07:11:37;;;;;;;1.47;0.90;;;25.40;82.70;;;;;;6080691;23;20451;-77
2022/07/09 07:14:04;;;;;;;1.47;0.90;;;25.50;82.10;;;;;;6095640;23;20501;-76
2022/07/09 07:16:32;;;;;;;1.43;0.90;;;25.60;82.40;;;;;;6083114;23;20450;-77
2022/07/09 07:19:01;;;;;;;1.47;0.90;;;25.70;82.10;;;;;;6099632;23;20422;-77
2022/07/09 07:21:29;;;;;;;1.43;0.87;;;25.90;81.80;;;;;;6090917;23;20505;-76
2022/07/09 07:23:56;;;;;;;1.43;0.80;;;25.90;81.00;;;;;;6113463;23;20474;-77
2022/07/09 07:26:24;;;;;;;1.50;0.90;;;26.00;81.50;;;;;;6092945;23;20455;-77
2022/07/09 07:28:51;;;;;;;1.47;0.80;;;26.20;81.00;;;;;;6098535;23;20431;-77
2022/07/09 07:31:24;;;;;;;1.50;0.90;;;26.50;80.30;;;;;;6092697;23;20511;-76
2022/07/09 07:33:52;;;;;;;1.50;0.80;;;26.70;80.00;;;;;;6108686;23;20458;-77
2022/07/09 07:36:22;;;;;;;1.47;0.80;;;26.80;79.20;;;;;;6086212;23;21107;-79
2022/07/09 07:38:49;;;;;;;1.50;0.90;;;26.90;78.50;;;;;;6100704;23;20454;-77
2022/07/09 07:41:18;;;;;;;1.50;1.00;;;27.00;77.80;;;;;;6097410;23;20434;-78
2022/07/09 07:43:48;;;;;;;1.50;0.90;;;27.10;77.80;;;;;;6112270;23;20426;-77
2022/07/09 07:46:15;;;;;;;1.47;0.80;;;26.90;78.10;;;;;;6100776;23;20436;-77
2022/07/09 07:48:45;;;;;;;2.20;1.20;;;26.80;77.70;;;;;;6110198;23;20505;-76
2022/07/09 07:51:12;;;;;;;1.47;0.80;;;26.80;76.90;;;;;;6097327;23;20442;-76
2022/07/09 07:53:42;;;;;;;1.47;0.80;;;26.90;78.50;;;;;;6099781;23;20454;-77
2022/07/09 07:56:10;;;;;;;1.50;0.80;;;27.00;78.50;;;;;;6087847;23;20450;-78
2022/07/09 07:58:37;;;;;;;1.50;0.90;;;27.20;77.30;;;;;;6101700;23;20493;-76
2022/07/09 08:01:08;;;;;;;1.43;0.90;;;27.50;77.10;;;;;;6085618;23;20426;-77
2022/07/09 08:03:36;;;;;;;1.43;0.83;;;27.60;75.00;;;;;;6109915;23;20764;-78
2022/07/09 08:06:03;;;;;;;1.43;0.80;;;27.80;74.40;;;;;;6086401;23;20418;-77
2022/07/09 08:08:31;;;;;;;1.43;0.90;;;27.80;75.80;;;;;;6109631;23;20450;-78
2022/07/09 08:11:02;;;;;;;1.47;0.80;;;27.60;74.10;;;;;;6098728;23;20920;-78
2022/07/09 08:13:29;;;;;;;1.40;0.80;;;27.40;75.30;;;;;;6109362;23;20473;-77
2022/07/09 08:15:57;;;;;;;1.50;0.80;;;27.40;76.20;;;;;;6099294;23;20423;-78
2022/07/09 08:18:25;;;;;;;1.43;0.80;;;27.60;75.90;;;;;;6100955;23;20462;-78
2022/07/09 08:20:59;;;;;;;1.50;0.80;;;27.70;74.20;;;;;;6111607;23;20516;-78
2022/07/09 08:26:21;;;;;;;1.40;0.80;;;27.60;75.00;;;;;;6101993;23;20676;-78
2022/07/09 08:28:50;;;;;;;1.40;0.80;;;27.70;74.50;;;;;;6105291;23;20457;-78
2022/07/09 08:31:18;;;;;;;1.40;0.80;;;27.80;73.90;;;;;;6080160;23;20469;-77
2022/07/09 08:33:47;;;;;;;1.43;0.80;;;27.90;73.00;;;;;;6094616;23;20446;-78
2022/07/09 08:36:16;;;;;;;1.40;0.80;;;28.00;74.30;;;;;;6097041;23;20430;-77
2022/07/09 08:38:46;;;;;;;1.40;0.80;;;28.00;73.50;;;;;;6110230;23;20498;-78
2022/07/09 08:41:51;;;;;;;;;;;;;;;;;;;;;
2022/07/09 08:44:20;;;;;;;1.47;0.80;;;27.80;73.70;;;;;;6110814;23;20445;-77
2022/07/09 08:46:48;;;;;;;1.40;0.80;;;27.70;74.50;;;;;;6086598;23;20962;-77
2022/07/09 08:49:17;;;;;;;1.40;0.80;;;27.70;74.90;;;;;;6099602;23;20417;-78
2022/07/09 08:51:47;;;;;;;1.40;0.80;;;27.70;74.70;;;;;;6091083;23;20529;-77
2022/07/09 08:54:17;;;;;;;1.47;0.80;;;27.70;74.00;;;;;;6101046;23;20541;-78
2022/07/09 08:56:46;;;;;;;1.47;0.97;;;27.80;73.10;;;;;;6087606;23;20873;-78
2022/07/09 08:59:14;;;;;;;1.47;0.80;;;27.90;72.70;;;;;;6112650;23;20442;-78
2022/07/09 09:01:43;;;;;;;1.40;0.90;;;28.10;73.90;;;;;;6087470;23;21062;-78
2022/07/09 09:04:10;;;;;;;1.47;0.80;;;28.30;71.20;;;;;;6111643;23;20477;-79
2022/07/09 09:06:39;;;;;;;1.50;1.00;;;28.10;71.50;;;;;;6089871;23;20486;-78
2022/07/09 09:09:10;;;;;;;1.40;0.80;;;28.10;73.20;;;;;;6104413;23;20426;-77
2022/07/09 09:11:39;;;;;;;1.43;0.80;;;28.20;72.40;;;;;;6095772;23;20449;-78
2022/07/09 09:14:09;;;;;;;1.43;0.80;;;28.30;71.90;;;;;;6101876;23;20790;-79
2022/07/09 09:16:46;;;;;;;1.47;0.80;;;28.70;69.60;;;;;;6087722;23;20446;-78
2022/07/09 09:19:14;;;;;;;1.50;0.90;;;29.00;69.00;;;;;;6112206;23;20632;-79
2022/07/09 09:22:22;;;;;;;1.47;0.80;;;29.20;70.40;;;;;;6088329;23;20504;-80
2022/07/09 09:24:53;;;;;;;1.43;0.80;;;29.30;68.80;;;;;;6104314;23;20442;-79
2022/07/09 09:27:30;;;;;;;1.47;0.80;;;29.40;67.90;;;;;;6089744;23;20453;-78
2022/07/09 09:30:01;;;;;;;1.43;0.80;;;29.50;67.30;;;;;;6104863;23;20485;-78
2022/07/09 09:32:31;;;;;;;1.43;0.80;;;29.60;67.00;;;;;;6091068;23;20453;-79
2022/07/09 09:35:04;;;;;;;1.47;0.80;;;29.70;66.70;;;;;;6104125;23;20504;-79
2022/07/09 09:37:32;;;;;;;1.43;0.80;;;29.70;67.80;;;;;;6088368;23;20453;-78
2022/07/09 09:40:10;;;;;;;1.43;0.80;;;29.70;67.10;;;;;;6101913;23;20437;-79
2022/07/09 09:42:42;;;;;;;1.40;0.80;;;29.90;66.60;;;;;;6085879;23;20570;-79
2022/07/09 09:45:14;;;;;;;1.47;0.80;;;29.90;66.40;;;;;;6111732;23;20458;-77
2022/07/09 09:47:43;;;;;;;1.43;0.80;;;29.90;65.40;;;;;;6088512;23;20478;-78
2022/07/09 09:50:15;;;;;;;1.50;0.80;;;30.00;66.30;;;;;;6110115;23;20489;-77
2022/07/09 09:52:44;;;;;;;1.47;0.80;;;30.00;67.50;;;;;;6087214;23;20977;-78
2022/07/09 09:55:13;;;;;;;1.47;0.80;;;29.90;66.50;;;;;;6100224;23;20485;-77
2022/07/09 09:57:41;;;;;;;1.43;0.90;;;29.90;67.00;;;;;;6085722;23;20493;-77
2022/07/09 10:00:12;;;;;;;1.40;0.80;;;29.90;66.30;;;;;;6110148;23;20655;-77
2022/07/09 10:02:43;;;;;;;1.43;0.80;;;29.80;67.40;;;;;;6072546;23;20520;-77
2022/07/09 10:05:13;;;;;;;1.47;0.90;;;29.90;66.60;;;;;;6096826;23;20473;-77
2022/07/09 10:07:45;;;;;;;1.43;0.80;;;29.70;67.40;;;;;;6084057;23;20483;-77
2022/07/09 10:10:19;;;;;;;1.47;0.80;;;29.60;68.00;;;;;;6098556;23;20430;-78
2022/07/09 10:12:46;;;;;;;1.43;0.80;;;29.60;67.00;;;;;;6085158;23;20835;-78
2022/07/09 10:15:24;;;;;;;1.43;0.80;;;29.50;69.40;;;;;;6098001;23;21027;-77
2022/07/09 10:17:52;;;;;;;1.47;0.80;;;29.30;68.00;;;;;;6085481;23;20483;-79
2022/07/09 10:20:33;;;;;;;1.40;0.80;;;29.30;68.10;;;;;;6103753;23;20442;-79
2022/07/09 10:23:01;;;;;;;1.43;0.80;;;29.30;67.70;;;;;;6077961;23;20684;-78
2022/07/09 10:25:31;;;;;;;1.43;0.80;;;29.40;68.00;;;;;;6097446;23;20445;-79
2022/07/09 10:27:58;;;;;;;1.47;0.80;;;29.40;67.10;;;;;;6080847;23;20493;-78
2022/07/09 10:30:29;;;;;;;1.47;0.80;;;29.50;67.70;;;;;;6107366;23;20422;-78
2022/07/09 10:33:08;;;;;;;1.43;0.80;;;29.70;68.40;;;;;;6082678;23;20522;-78
2022/07/09 10:35:43;;;;;;;1.47;0.80;;;29.90;68.30;;;;;;6101159;23;20516;-78
2022/07/09 10:38:11;;;;;;;1.47;0.80;;;30.10;66.50;;;;;;6084001;23;20449;-78
2022/07/09 10:40:41;;;;;;;1.43;0.80;;;30.20;65.40;;;;;;6106672;23;20426;-78
2022/07/09 10:43:09;;;;;;;1.43;0.80;;;30.00;67.10;;;;;;6082967;23;20454;-77
2022/07/09 10:45:43;;;;;;;1.47;0.80;;;29.90;65.70;;;;;;6109572;23;20450;-78
2022/07/09 10:48:12;;;;;;;1.40;0.80;;;29.80;67.70;;;;;;6081643;23;20450;-77
2022/07/09 10:50:42;;;;;;;1.43;0.80;;;29.80;67.10;;;;;;6096397;23;20422;-81
2022/07/09 10:53:09;;;;;;;1.40;0.80;;;29.60;67.60;;;;;;6079861;23;20454;-78
2022/07/09 10:55:37;;;;;;;1.43;0.80;;;29.40;66.50;;;;;;6097234;23;20980;-77
2022/07/09 10:58:07;;;;;;;1.47;0.80;;;29.30;67.70;;;;;;6080189;23;20613;-78
2022/07/09 11:00:35;;;;;;;1.47;0.80;;;29.10;68.70;;;;;;6100485;23;20991;-78
2022/07/09 11:03:05;;;;;;;1.43;0.80;;;29.10;69.00;;;;;;6089462;23;20450;-78
2022/07/09 11:05:34;;;;;;;1.43;0.80;;;29.20;68.80;;;;;;6116617;23;20450;-78
2022/07/09 11:08:05;;;;;;;1.47;0.80;;;29.20;68.60;;;;;;6089693;23;20450;-79
2022/07/09 11:10:36;;;;;;;1.50;0.80;;;29.20;67.70;;;;;;6112599;23;20424;-78
2022/07/09 11:13:06;;;;;;;1.40;0.80;;;29.20;67.40;;;;;;6089044;23;20532;-78
2022/07/09 11:15:35;;;;;;;1.43;0.80;;;29.10;68.30;;;;;;6113676;23;20657;-79
2022/07/09 11:18:05;;;;;;;1.40;0.80;;;28.90;68.00;;;;;;6087297;23;20791;-78
2022/07/09 11:20:39;;;;;;;1.43;0.80;;;28.70;69.00;;;;;;6103989;23;20439;-78
2022/07/09 11:23:07;;;;;;;1.43;0.90;;;28.70;69.70;;;;;;6087182;23;20470;-78
2022/07/09 11:25:34;;;;;;;1.43;0.80;;;28.80;70.50;;;;;;6112461;23;20462;-79
2022/07/09 11:28:04;;;;;;;1.47;0.90;;;29.10;69.00;;;;;;6085802;23;20477;-79
2022/07/09 11:30:33;;;;;;;1.43;0.80;;;29.40;70.10;;;;;;6113520;23;20493;-79
2022/07/09 11:33:01;;;;;;;1.47;0.80;;;29.70;67.80;;;;;;6086327;23;20477;-79
2022/07/09 11:35:40;;;;;;;1.43;0.80;;;29.70;66.90;;;;;;6113547;23;20506;-80
2022/07/09 11:38:08;;;;;;;1.43;0.80;;;29.80;68.20;;;;;;6086339;23;20477;-79
2022/07/09 11:40:36;;;;;;;1.50;1.00;;;29.90;68.00;;;;;;6103554;23;20433;-79
2022/07/09 11:43:13;;;;;;;1.47;0.80;;;29.90;66.70;;;;;;6086878;23;20535;-80
2022/07/09 11:45:41;;;;;;;1.40;0.80;;;29.90;66.30;;;;;;6112791;23;20477;-80
2022/07/09 11:48:10;;;;;;;1.43;0.80;;;29.80;67.30;;;;;;6085588;23;20468;-79
2022/07/09 11:50:46;;;;;;;1.40;0.80;;;29.80;67.10;;;;;;6111022;23;20440;-78
2022/07/09 11:53:25;;;;;;;1.40;0.80;;;29.90;68.30;;;;;;6091093;23;20422;-79
2022/07/09 11:58:20;;;;;;;1.47;0.80;;;30.00;66.30;;;;;;6086066;23;20461;-78
2022/07/09 12:00:48;;;;;;;1.40;0.80;;;29.80;66.80;;;;;;6098535;23;20512;-79
2022/07/09 12:03:25;;;;;;;1.43;0.90;;;29.70;67.60;;;;;;6101323;23;20430;-79
2022/07/09 12:05:55;;;;;;;1.70;1.20;;;29.80;66.00;;;;;;6099159;23;20741;-80
2022/07/09 12:08:29;;;;;;;1.40;0.80;;;29.80;67.00;;;;;;6102630;23;20493;-79
2022/07/09 12:10:57;;;;;;;1.47;0.80;;;29.80;66.60;;;;;;6088550;23;20470;-79
2022/07/09 12:13:25;;;;;;;1.40;0.80;;;29.90;66.80;;;;;;6112764;23;20519;-79
2022/07/09 12:16:07;;;;;;;1.40;0.90;;;30.00;66.50;;;;;;6089877;23;20446;-79
2022/07/09 12:18:40;;;;;;;1.40;0.80;;;29.80;66.60;;;;;;6111044;23;20418;-79
2022/07/09 12:21:10;;;;;;;1.47;0.80;;;29.60;67.70;;;;;;6097112;23;20431;-79
2022/07/09 12:23:38;;;;;;;1.43;0.80;;;29.40;68.30;;;;;;6104368;23;20497;-81
2022/07/09 12:26:10;;;;;;;1.40;0.80;;;29.30;68.10;;;;;;6096068;23;20434;-80
2022/07/09 12:28:42;;;;;;;1.40;0.80;;;29.20;68.30;;;;;;6112200;23;20446;-79
2022/07/09 12:31:13;;;;;;;1.40;0.80;;;29.20;68.30;;;;;;6086041;23;20470;-78
2022/07/09 12:33:42;;;;;;;1.43;0.80;;;29.20;68.80;;;;;;6102051;23;20430;-80
2022/07/09 12:36:11;;;;;;;1.40;0.80;;;29.30;69.30;;;;;;6096532;23;20452;-80
2022/07/09 12:39:03;;;;;;;1.40;0.80;;;29.30;69.10;;;;;;6103012;23;20426;-81
2022/07/09 12:41:32;;;;;;;1.40;0.80;;;29.40;70.40;;;;;;6091984;23;20454;-80
2022/07/09 12:43:59;;;;;;;1.43;0.80;;;29.70;69.70;;;;;;6101441;23;20472;-78
2022/07/09 12:46:27;;;;;;;1.40;0.80;;;29.70;68.30;;;;;;6093844;23;20914;-79
2022/07/09 12:48:55;;;;;;;1.43;0.80;;;29.60;68.30;;;;;;6109518;23;20494;-79
2022/07/09 12:51:24;;;;;;;1.43;0.80;;;29.30;68.90;;;;;;6092333;23;20474;-79
2022/07/09 12:53:52;;;;;;;1.43;0.80;;;29.10;69.70;;;;;;6110958;23;20461;-79
2022/07/09 12:56:20;;;;;;;1.47;0.83;;;28.80;70.10;;;;;;6085315;23;20979;-79
2022/07/09 12:58:48;;;;;;;1.43;0.80;;;28.50;70.90;;;;;;6100737;23;20454;-77
2022/07/09 13:01:18;;;;;;;1.50;0.90;;;28.30;71.70;;;;;;6091773;23;20476;-77
2022/07/09 13:03:46;;;;;;;1.40;0.90;;;27.90;72.60;;;;;;6098515;23;20697;-78
2022/07/09 13:08:58;;;;;;;1.50;0.90;;;27.30;74.30;;;;;;6097984;23;20421;-78